createdAt,value
2024-01-24T00:00:16.084Z,67.40
2024-01-24T00:01:16.172Z,64.22
2024-01-24T00:02:16.165Z,67.95
2024-01-24T00:03:16.326Z,65.35
2024-01-24T00:04:16.321Z,67.20
2024-01-24T00:05:16.340Z,66.60
2024-01-24T00:58:14.994Z,67.12
2024-01-24T00:59:15.956Z,83.04
2024-01-24T01:00:16.009Z,111.54
2024-01-24T01:01:16.019Z,144.65
2024-01-24T01:02:15.986Z,181.46
2024-01-24T01:03:16.098Z,197.98
2024-01-24T01:04:16.068Z,183.65
2024-01-24T01:05:16.058Z,168.16
2024-01-24T01:06:16.045Z,155.44
2024-01-24T01:07:16.035Z,145.70
2024-01-24T01:08:16.045Z,138.05
2024-01-24T01:09:16.052Z,128.72
2024-01-24T01:10:16.048Z,123.54
2024-01-24T01:11:16.049Z,118.50
2024-01-24T01:12:16.103Z,112.06
2024-01-24T01:13:16.046Z,108.88
2024-01-24T01:14:16.056Z,104.84
2024-01-24T01:15:16.038Z,101.77
2024-01-24T01:16:16.020Z,97.65
2024-01-24T01:17:16.030Z,97.04
2024-01-24T01:18:16.039Z,93.33
2024-01-24T01:19:16.293Z,91.04
2024-01-24T01:20:16.085Z,88.18
2024-01-24T01:21:16.123Z,87.19
2024-01-24T01:22:16.190Z,86.00
2024-01-24T01:23:16.128Z,83.52
2024-01-24T01:24:16.128Z,81.20
2024-01-24T01:25:16.121Z,82.01
2024-01-24T01:26:16.141Z,80.75
2024-01-24T01:27:16.214Z,78.84
2024-01-24T01:28:16.121Z,76.83
2024-01-24T01:29:16.124Z,75.85
2024-01-24T01:30:16.217Z,76.05
2024-01-24T01:31:16.208Z,75.47
2024-01-24T01:32:16.267Z,75.24
2024-01-24T01:33:16.484Z,73.01
2024-01-24T01:34:16.472Z,73.74
2024-01-24T01:35:16.434Z,73.41
2024-01-24T01:36:22.869Z,72.49
2024-01-24T01:37:16.544Z,72.55
2024-01-24T01:38:16.491Z,72.56
2024-01-24T01:39:16.527Z,72.57
2024-01-24T01:40:16.785Z,71.86
2024-01-24T01:41:16.506Z,70.53
2024-01-24T01:42:16.598Z,70.46
2024-01-24T01:43:16.525Z,68.25
2024-01-24T01:44:16.553Z,69.38
2024-01-24T01:45:16.740Z,68.63
2024-01-24T01:46:16.586Z,69.79
2024-01-24T01:47:16.646Z,65.90
2024-01-24T01:48:16.681Z,68.70
2024-01-24T01:49:16.666Z,66.10
2024-01-24T01:50:16.571Z,67.35
2024-01-24T01:51:16.563Z,66.31
2024-01-24T01:52:16.556Z,65.72
2024-01-24T01:53:16.563Z,66.14
2024-01-24T01:54:23.297Z,66.21
2024-01-24T01:55:16.650Z,66.30
2024-01-24T01:56:16.568Z,65.44
2024-01-24T01:57:16.618Z,66.88
2024-01-24T01:58:16.582Z,65.90
2024-01-24T01:59:16.578Z,64.60
2024-01-24T02:00:16.692Z,64.08
2024-01-24T02:01:16.726Z,65.08
2024-01-24T02:02:16.633Z,63.56
2024-01-24T02:03:16.739Z,64.17
2024-01-24T02:04:16.659Z,63.40
2024-01-24T02:05:16.679Z,62.61
2024-01-24T02:06:16.984Z,62.23
2024-01-24T02:07:16.874Z,63.60
2024-01-24T02:08:16.661Z,64.21
2024-01-24T02:09:16.729Z,61.41
2024-01-24T02:10:16.721Z,62.35
2024-01-24T02:11:16.694Z,62.35
2024-01-24T02:12:16.795Z,61.12
2024-01-24T02:13:16.823Z,62.21
2024-01-24T02:14:16.854Z,60.75
2024-01-24T02:15:16.936Z,61.77
2024-01-24T02:16:20.108Z,61.81
2024-01-24T02:17:16.970Z,61.88
2024-01-24T02:18:17.145Z,61.98
2024-01-24T02:19:17.001Z,62.30
2024-01-24T02:20:16.991Z,61.99
2024-01-24T02:21:17.016Z,61.87
2024-01-24T02:22:17.043Z,60.32
2024-01-24T02:23:17.082Z,60.64
2024-01-24T02:24:17.208Z,60.29
2024-01-24T02:25:17.188Z,60.60
2024-01-24T02:26:17.261Z,60.47
2024-01-24T02:27:17.378Z,59.55
2024-01-24T02:28:17.369Z,60.78
2024-01-24T02:29:17.433Z,60.57
2024-01-24T02:30:17.616Z,59.79
2024-01-24T02:31:17.545Z,59.99
2024-01-24T02:32:17.605Z,59.40
2024-01-24T02:33:17.844Z,59.55
2024-01-24T02:34:17.895Z,60.06
2024-01-24T02:35:17.771Z,59.91
2024-01-24T02:36:17.863Z,59.86
2024-01-24T02:37:17.893Z,59.86
2024-01-24T02:38:17.953Z,59.67
2024-01-24T02:39:18.047Z,59.95
2024-01-24T02:40:18.071Z,60.51
2024-01-24T02:41:18.782Z,59.78
2024-01-24T02:42:18.229Z,60.49
2024-01-24T02:43:18.245Z,59.18
2024-01-24T02:44:18.795Z,58.98
2024-01-24T02:45:18.397Z,60.01
2024-01-24T02:46:18.444Z,60.00
2024-01-24T02:47:19.287Z,57.98
2024-01-24T02:48:18.701Z,59.15
2024-01-24T02:49:18.641Z,58.70
2024-01-24T02:50:18.666Z,60.14
2024-01-24T02:51:18.725Z,59.43
2024-01-24T02:52:18.788Z,58.31
2024-01-24T02:53:18.834Z,58.16
2024-01-24T02:54:18.929Z,59.44
2024-01-24T02:55:18.947Z,58.71
2024-01-24T02:56:19.012Z,60.34
2024-01-24T02:57:19.101Z,58.48
2024-01-24T02:58:19.138Z,59.29
2024-01-24T02:59:19.199Z,58.82
2024-01-24T03:00:19.279Z,59.11
2024-01-24T03:01:19.373Z,58.91
2024-01-24T03:02:19.398Z,58.12
2024-01-24T03:03:19.449Z,58.64
2024-01-24T03:04:19.631Z,59.21
2024-01-24T03:05:19.554Z,57.32
2024-01-24T03:06:19.706Z,58.35
2024-01-24T03:07:19.698Z,58.94
2024-01-24T03:08:19.721Z,59.53
2024-01-24T03:09:19.810Z,58.21
2024-01-24T03:10:19.831Z,57.61
2024-01-24T03:11:19.899Z,59.41
2024-01-24T03:12:19.976Z,57.45
2024-01-24T03:13:20.061Z,57.09
2024-01-24T03:14:20.071Z,57.67
2024-01-24T03:15:20.144Z,59.08
2024-01-24T03:16:20.186Z,58.35
2024-01-24T03:17:20.242Z,57.43
2024-01-24T03:18:20.398Z,57.55
2024-01-24T03:19:20.482Z,58.62
2024-01-24T03:20:20.416Z,58.19
2024-01-24T03:21:20.533Z,58.76
2024-01-24T03:22:20.577Z,58.21
2024-01-24T03:23:20.599Z,58.01
2024-01-24T03:24:20.708Z,58.89
2024-01-24T03:25:20.722Z,59.47
2024-01-24T03:26:20.784Z,57.10
2024-01-24T03:27:20.857Z,58.25
2024-01-24T03:28:20.894Z,59.17
2024-01-24T03:29:21.817Z,57.86
2024-01-24T03:30:21.060Z,60.22
2024-01-24T03:31:21.063Z,58.82
2024-01-24T03:32:21.126Z,58.74
2024-01-24T03:33:21.253Z,57.89
2024-01-24T03:34:21.348Z,58.21
2024-01-24T03:35:21.297Z,58.26
2024-01-24T03:36:21.439Z,58.01
2024-01-24T03:37:21.820Z,57.50
2024-01-24T03:38:21.497Z,58.74
2024-01-24T03:39:21.601Z,58.97
2024-01-24T03:40:21.615Z,58.59
2024-01-24T03:41:21.651Z,58.94
2024-01-24T03:42:21.766Z,58.63
2024-01-24T03:43:21.873Z,59.63
2024-01-24T03:44:21.833Z,59.32
2024-01-24T03:45:21.924Z,58.05
2024-01-24T03:46:21.945Z,59.53
2024-01-24T03:47:22.005Z,58.98
2024-01-24T03:48:22.151Z,58.58
2024-01-24T03:49:22.478Z,59.02
2024-01-24T03:50:22.179Z,58.01
2024-01-24T03:51:22.353Z,58.26
2024-01-24T03:52:22.312Z,57.54
2024-01-24T03:53:22.369Z,58.18
2024-01-24T03:54:22.479Z,58.88
2024-01-24T03:55:22.488Z,58.20
2024-01-24T03:56:22.565Z,57.92
2024-01-24T03:57:22.691Z,58.35
2024-01-24T03:58:22.673Z,57.27
2024-01-24T03:59:22.745Z,57.96
2024-01-24T04:00:22.867Z,57.40
2024-01-24T04:01:22.953Z,57.10
2024-01-24T04:02:22.925Z,58.81
2024-01-24T04:03:23.184Z,58.22
2024-01-24T04:04:23.256Z,59.17
2024-01-24T04:05:23.086Z,58.87
2024-01-24T04:06:23.336Z,58.68
2024-01-24T04:07:23.291Z,56.68
2024-01-24T04:08:23.284Z,58.24
2024-01-24T04:09:23.418Z,57.70
2024-01-24T04:10:23.411Z,57.81
2024-01-24T04:11:23.611Z,56.78
2024-01-24T04:12:23.743Z,58.13
2024-01-24T04:13:23.571Z,56.82
2024-01-24T04:14:23.646Z,57.97
2024-01-24T04:15:23.952Z,57.79
2024-01-24T04:16:23.767Z,58.36
2024-01-24T04:17:23.835Z,57.63
2024-01-24T04:18:23.959Z,57.70
2024-01-24T04:19:24.031Z,58.08
2024-01-24T04:20:24.006Z,57.25
2024-01-24T04:21:24.098Z,56.56
2024-01-24T04:22:24.137Z,58.02
2024-01-24T04:23:24.187Z,56.92
2024-01-24T04:24:24.311Z,56.39
2024-01-24T04:25:24.311Z,57.65
2024-01-24T04:26:24.413Z,57.04
2024-01-24T04:27:24.500Z,57.33
2024-01-24T04:28:24.522Z,57.85
2024-01-24T04:29:24.579Z,56.20
2024-01-24T04:30:24.679Z,56.16
2024-01-24T04:31:24.696Z,56.57
2024-01-24T04:32:24.805Z,56.87
2024-01-24T04:33:24.884Z,56.94
2024-01-24T04:34:25.110Z,58.19
2024-01-24T04:35:24.954Z,57.86
2024-01-24T04:36:25.061Z,58.14
2024-01-24T04:37:25.092Z,56.23
2024-01-24T04:38:25.161Z,55.46
2024-01-24T04:39:32.342Z,50.00
2024-01-24T04:40:33.308Z,50.00
2024-01-24T04:41:33.312Z,50.00
2024-01-24T04:42:33.294Z,50.00
2024-01-24T04:43:33.261Z,50.00
2024-01-24T04:44:33.245Z,50.00
2024-01-24T04:45:33.268Z,51.05
2024-01-24T04:46:33.229Z,51.06
2024-01-24T04:47:33.217Z,52.00
2024-01-24T04:48:33.261Z,51.12
2024-01-24T04:49:43.820Z,51.70
2024-01-24T04:50:33.291Z,51.82
2024-01-24T04:51:33.159Z,52.56
2024-01-24T04:52:33.138Z,52.93
2024-01-24T04:53:33.117Z,53.09
2024-01-24T04:54:33.112Z,53.40
2024-01-24T04:55:33.078Z,52.02
2024-01-24T04:56:33.066Z,53.76
2024-01-24T04:57:33.063Z,50.07
2024-01-24T04:58:33.018Z,50.88
2024-01-24T04:59:42.454Z,50.98
2024-01-24T05:00:33.080Z,51.20
2024-01-24T05:01:33.036Z,51.83
2024-01-24T05:02:32.965Z,52.18
2024-01-24T05:03:32.985Z,52.95
2024-01-24T05:04:32.957Z,53.33
2024-01-24T05:05:32.967Z,52.47
2024-01-24T05:06:33.038Z,54.39
2024-01-24T05:07:32.894Z,51.65
2024-01-24T05:08:32.872Z,51.63
2024-01-24T05:09:32.955Z,50.15
2024-01-24T05:10:32.838Z,54.15
2024-01-24T05:11:32.824Z,53.60
2024-01-24T05:12:32.879Z,52.57
2024-01-24T05:13:32.821Z,52.58
2024-01-24T05:14:32.775Z,53.31
2024-01-24T05:15:32.763Z,52.75
2024-01-24T05:16:32.729Z,52.86
2024-01-24T05:17:32.735Z,50.25
2024-01-24T05:18:32.939Z,53.46
2024-01-24T05:19:32.840Z,50.69
2024-01-24T05:20:32.686Z,51.90
2024-01-24T05:21:32.721Z,51.91
2024-01-24T05:22:32.661Z,52.04
2024-01-24T05:23:32.703Z,50.04
2024-01-24T05:24:32.764Z,50.55
2024-01-24T05:25:32.778Z,50.85
2024-01-24T05:26:32.802Z,52.38
2024-01-24T05:27:32.909Z,52.04
2024-01-24T05:28:32.925Z,51.95
2024-01-24T05:29:32.976Z,52.50
2024-01-24T05:30:35.838Z,51.66
2024-01-24T05:31:33.045Z,51.79
2024-01-24T05:32:33.045Z,52.07
2024-01-24T05:33:33.109Z,51.94
2024-01-24T05:34:33.029Z,53.72
2024-01-24T05:35:31.963Z,52.34
2024-01-24T05:36:32.982Z,53.72
2024-01-24T05:37:32.943Z,52.75
2024-01-24T05:38:32.924Z,51.61
2024-01-24T05:39:32.952Z,50.97
2024-01-24T05:40:32.960Z,53.04
2024-01-24T05:41:32.999Z,53.27
2024-01-24T05:42:33.057Z,53.33
2024-01-24T05:43:33.088Z,53.94
2024-01-24T05:44:33.151Z,53.28
2024-01-24T05:45:33.322Z,53.72
2024-01-24T05:46:33.296Z,51.60
2024-01-24T05:47:33.405Z,51.93
2024-01-24T05:48:33.448Z,52.87
2024-01-24T05:49:33.478Z,52.12
2024-01-24T05:50:33.458Z,52.11
2024-01-24T05:51:33.563Z,53.43
2024-01-24T05:52:33.567Z,50.72
2024-01-24T05:53:33.640Z,53.21
2024-01-24T05:54:33.725Z,52.42
2024-01-24T05:55:33.758Z,53.99
2024-01-24T05:56:33.799Z,53.43
2024-01-24T05:57:33.880Z,53.12
2024-01-24T05:58:33.910Z,53.95
2024-01-24T05:59:33.996Z,52.10
2024-01-24T06:00:34.180Z,53.54
2024-01-24T06:01:34.226Z,54.44
2024-01-24T06:02:34.093Z,53.74
2024-01-24T06:03:34.208Z,53.64
2024-01-24T06:04:34.361Z,53.44
2024-01-24T06:05:34.384Z,52.92
2024-01-24T06:06:34.376Z,52.49
2024-01-24T06:07:34.458Z,56.25
2024-01-24T06:08:34.426Z,53.68
2024-01-24T06:09:34.525Z,54.11
2024-01-24T06:10:34.550Z,54.24
2024-01-24T06:11:34.642Z,52.80
2024-01-24T06:12:34.878Z,55.24
2024-01-24T06:13:34.717Z,54.71
2024-01-24T06:14:34.759Z,54.73
2024-01-24T06:15:34.842Z,54.84
2024-01-24T06:16:34.845Z,54.07
2024-01-24T06:17:35.636Z,54.24
2024-01-24T06:18:34.961Z,53.38
2024-01-24T06:19:35.022Z,55.56
2024-01-24T06:20:34.980Z,55.43
2024-01-24T06:21:35.024Z,54.55
2024-01-24T06:22:35.478Z,55.81
2024-01-24T06:23:35.052Z,56.50
2024-01-24T06:24:35.143Z,56.72
2024-01-24T06:25:35.147Z,58.29
2024-01-24T06:26:35.194Z,58.38
2024-01-24T06:27:35.508Z,58.64
2024-01-24T06:28:35.317Z,58.22
2024-01-24T06:30:15.913Z,60.23
2024-01-24T06:30:35.391Z,60.30
2024-01-24T06:31:35.409Z,60.64
2024-01-24T06:32:35.523Z,61.10
2024-01-24T06:33:35.417Z,61.60
2024-01-24T06:34:35.372Z,62.57
2024-01-24T06:35:35.266Z,64.34
2024-01-24T06:36:35.317Z,61.97
2024-01-24T06:37:35.237Z,60.01
2024-01-24T06:38:35.488Z,59.12
2024-01-24T06:39:35.253Z,59.75
2024-01-24T06:40:35.196Z,60.41
2024-01-24T06:41:35.156Z,64.19
2024-01-24T06:42:35.509Z,66.28
2024-01-24T06:43:35.128Z,68.05
2024-01-24T06:44:35.112Z,70.41
2024-01-24T06:45:35.177Z,71.12
2024-01-24T06:46:35.072Z,73.22
2024-01-24T06:47:35.559Z,76.79
2024-01-24T06:48:35.592Z,77.74
2024-01-24T06:49:35.613Z,78.20
2024-01-24T06:50:35.512Z,87.85
2024-01-24T06:51:35.058Z,90.40
2024-01-24T06:52:35.016Z,92.53
2024-01-24T06:53:34.999Z,95.65
2024-01-24T06:54:35.074Z,98.68
2024-01-24T06:55:34.943Z,100.56
2024-01-24T06:56:34.922Z,103.12
2024-01-24T06:57:35.910Z,102.43
2024-01-24T06:58:34.993Z,106.35
2024-01-24T06:59:35.549Z,106.43
2024-01-24T07:00:35.053Z,107.24
2024-01-24T07:01:35.172Z,108.01
2024-01-24T07:02:35.979Z,110.60
2024-01-24T07:03:34.880Z,113.15
2024-01-24T07:04:35.202Z,113.62
2024-01-24T07:05:35.066Z,118.28
2024-01-24T07:06:34.786Z,121.14
2024-01-24T07:07:35.000Z,123.51
2024-01-24T07:08:34.727Z,128.11
2024-01-24T07:09:34.774Z,129.05
2024-01-24T07:10:36.019Z,134.70
2024-01-24T07:11:34.864Z,139.80
2024-01-24T07:12:34.905Z,144.12
2024-01-24T07:13:34.966Z,149.89
2024-01-24T07:14:35.634Z,156.63
2024-01-24T07:15:36.005Z,162.31
2024-01-24T07:16:38.242Z,166.41
2024-01-24T07:17:38.282Z,166.68
2024-01-24T07:18:35.093Z,166.92
2024-01-24T07:19:35.088Z,169.33
2024-01-24T07:20:34.909Z,174.53
2024-01-24T07:21:34.968Z,183.87
2024-01-24T07:22:35.039Z,196.77
2024-01-24T07:23:34.807Z,200.00
2024-01-24T07:24:34.893Z,199.65
2024-01-24T07:25:34.755Z,199.56
2024-01-24T07:26:34.730Z,198.54
2024-01-24T07:27:36.005Z,199.41
2024-01-24T07:28:34.720Z,199.31
2024-01-24T07:29:34.724Z,197.05
2024-01-24T07:30:34.909Z,198.90
2024-01-24T07:31:34.732Z,196.61
2024-01-24T07:32:34.776Z,196.24
2024-01-24T07:33:34.876Z,195.36
2024-01-24T07:34:34.966Z,194.81
2024-01-24T07:35:35.013Z,195.25
2024-01-24T07:36:34.899Z,196.33
2024-01-24T07:37:34.922Z,196.82
2024-01-24T07:38:35.013Z,197.91
2024-01-24T07:39:34.950Z,199.37
2024-01-24T07:40:34.951Z,200.00
2024-01-24T07:41:34.965Z,200.00
2024-01-24T07:42:35.778Z,198.93
2024-01-24T07:43:35.001Z,198.75
2024-01-24T07:44:35.005Z,199.64
2024-01-24T07:45:35.156Z,198.92
2024-01-24T07:46:35.035Z,200.00
2024-01-24T07:47:35.561Z,198.71
2024-01-24T07:48:35.122Z,200.00
2024-01-24T07:49:38.438Z,199.64
2024-01-24T07:50:35.025Z,199.75
2024-01-24T07:51:34.988Z,200.32
2024-01-24T07:52:40.755Z,201.79
2024-01-24T07:53:35.940Z,199.98
2024-01-24T07:54:34.951Z,200.03
2024-01-24T07:55:41.691Z,201.79
2024-01-24T07:56:34.872Z,200.14
2024-01-24T07:57:34.907Z,199.63
2024-01-24T07:58:34.841Z,188.30
2024-01-24T07:59:34.783Z,179.03
2024-01-24T08:00:34.875Z,173.09
2024-01-24T08:01:35.131Z,166.44
2024-01-24T08:02:34.744Z,164.36
2024-01-24T08:03:34.837Z,161.56
2024-01-24T08:04:34.733Z,160.92
2024-01-24T08:05:34.681Z,160.68
2024-01-24T08:06:37.948Z,160.95
2024-01-24T08:07:34.682Z,160.96
2024-01-24T08:08:34.623Z,160.30
2024-01-24T08:09:34.647Z,161.01
2024-01-24T08:10:34.563Z,162.01
2024-01-24T08:11:34.541Z,164.33
2024-01-24T08:12:35.035Z,169.10
2024-01-24T08:13:34.512Z,173.84
2024-01-24T08:14:35.974Z,169.17
2024-01-24T08:15:34.534Z,164.20
2024-01-24T08:16:35.386Z,152.90
2024-01-24T08:17:34.505Z,141.07
2024-01-24T08:18:34.635Z,129.76
2024-01-24T08:19:34.613Z,124.57
2024-01-24T08:20:34.539Z,118.19
2024-01-24T08:21:34.484Z,115.97
2024-01-24T08:22:34.549Z,112.75
2024-01-24T08:23:42.619Z,111.56
2024-01-24T08:24:35.505Z,111.58
2024-01-24T08:25:34.499Z,111.70
2024-01-24T08:26:34.480Z,112.08
2024-01-24T08:27:34.618Z,113.84
2024-01-24T08:28:34.428Z,118.39
2024-01-24T08:29:37.629Z,123.63
2024-01-24T08:30:34.445Z,112.16
2024-01-24T08:31:34.375Z,115.12
2024-01-24T08:32:34.660Z,121.39
2024-01-24T08:33:34.510Z,131.71
2024-01-24T08:34:34.656Z,147.16
2024-01-24T08:35:34.287Z,152.26
2024-01-24T08:36:34.331Z,155.86
2024-01-24T08:37:34.540Z,159.87
2024-01-24T08:38:34.224Z,163.28
2024-01-24T08:39:34.817Z,166.30
2024-01-24T08:40:34.205Z,170.32
2024-01-24T08:41:34.272Z,170.77
2024-01-24T08:42:34.289Z,171.19
2024-01-24T08:43:34.310Z,171.06
2024-01-24T08:44:34.609Z,173.40
2024-01-24T08:45:34.386Z,173.04
2024-01-24T08:46:34.386Z,173.05
2024-01-24T08:47:35.439Z,173.64
2024-01-24T08:48:34.618Z,174.61
2024-01-24T08:49:34.594Z,174.54
2024-01-24T08:50:34.475Z,177.20
2024-01-24T08:51:37.739Z,191.92
2024-01-24T08:52:41.879Z,192.35
2024-01-24T08:53:34.458Z,192.66
2024-01-24T08:54:36.450Z,196.44
2024-01-24T08:55:34.545Z,193.23
2024-01-24T08:56:34.412Z,198.14
2024-01-24T08:57:34.420Z,206.89
2024-01-24T08:58:34.366Z,219.62
2024-01-24T08:59:34.553Z,235.59
2024-01-24T09:00:34.480Z,217.60
2024-01-24T09:01:41.799Z,200.00
2024-01-24T09:02:34.557Z,200.04
2024-01-24T09:03:34.417Z,198.21
2024-01-24T09:04:34.385Z,194.63
2024-01-24T09:05:34.301Z,193.57
2024-01-24T09:06:34.363Z,193.52
2024-01-24T09:07:34.591Z,192.23
2024-01-24T09:08:34.226Z,191.15
2024-01-24T09:09:34.386Z,189.75
2024-01-24T09:10:34.218Z,188.32
2024-01-24T09:11:38.425Z,187.73
2024-01-24T09:12:34.188Z,187.81
2024-01-24T09:13:34.201Z,187.96
2024-01-24T09:14:34.199Z,184.93
2024-01-24T09:15:35.016Z,182.29
2024-01-24T09:16:34.200Z,181.64
2024-01-24T09:17:35.083Z,178.87
2024-01-24T09:18:34.894Z,177.09
2024-01-24T09:19:34.239Z,174.28
2024-01-24T09:20:34.191Z,173.24
2024-01-24T09:21:34.589Z,173.50
2024-01-24T09:22:34.208Z,170.94
2024-01-24T09:23:34.226Z,171.49
2024-01-24T09:24:34.318Z,170.98
2024-01-24T09:25:34.556Z,171.92
2024-01-24T09:26:34.389Z,172.87
2024-01-24T09:27:34.594Z,173.57
2024-01-24T09:28:34.470Z,174.12
2024-01-24T09:29:33.471Z,174.21
2024-01-24T09:30:34.489Z,174.64
2024-01-24T09:31:34.501Z,175.58
2024-01-24T09:32:34.430Z,176.86
2024-01-24T09:33:36.169Z,180.39
2024-01-24T09:34:34.651Z,174.44
2024-01-24T09:35:34.637Z,175.41
2024-01-24T09:36:34.320Z,177.15
2024-01-24T09:37:34.569Z,179.00
2024-01-24T09:38:34.581Z,181.31
2024-01-24T09:39:34.587Z,175.91
2024-01-24T09:40:34.637Z,173.43
2024-01-24T09:41:34.282Z,165.97
2024-01-24T09:42:34.260Z,160.87
2024-01-24T09:43:34.243Z,157.18
2024-01-24T09:44:34.367Z,155.59
2024-01-24T09:45:34.709Z,153.85
2024-01-24T09:46:34.228Z,151.61
2024-01-24T09:47:34.622Z,150.20
2024-01-24T09:48:34.268Z,150.72
2024-01-24T09:49:35.448Z,151.33
2024-01-24T09:50:34.148Z,151.96
2024-01-24T09:51:34.163Z,151.48
2024-01-24T09:52:34.579Z,152.75
2024-01-24T09:53:34.181Z,154.86
2024-01-24T09:54:34.361Z,156.37
2024-01-24T09:55:34.223Z,161.22
2024-01-24T09:56:34.344Z,164.71
2024-01-24T09:57:34.703Z,165.80
2024-01-24T09:58:34.265Z,168.73
2024-01-24T09:59:34.266Z,169.33
2024-01-24T10:00:34.282Z,171.28
2024-01-24T10:01:34.407Z,171.79
2024-01-24T10:02:34.571Z,172.93
2024-01-24T10:03:37.674Z,173.25
2024-01-24T10:04:34.657Z,173.29
2024-01-24T10:05:34.392Z,173.27
2024-01-24T10:07:34.656Z,171.08
2024-01-24T10:08:34.246Z,169.49
2024-01-24T10:09:34.262Z,166.61
2024-01-24T10:10:34.216Z,165.29
2024-01-24T10:11:34.180Z,164.64
2024-01-24T10:12:34.252Z,162.59
2024-01-24T10:13:34.173Z,160.73
2024-01-24T10:14:34.165Z,158.62
2024-01-24T10:15:34.229Z,158.61
2024-01-24T10:16:34.162Z,160.76
2024-01-24T10:17:34.190Z,162.48
2024-01-24T10:18:34.256Z,163.21
2024-01-24T10:19:34.249Z,163.60
2024-01-24T10:20:34.232Z,164.30
2024-01-24T10:21:34.435Z,161.98
2024-01-24T10:22:34.747Z,160.01
2024-01-24T10:23:34.400Z,158.63
2024-01-24T10:24:34.490Z,156.55
2024-01-24T10:25:34.525Z,155.50
2024-01-24T10:26:34.552Z,153.14
2024-01-24T10:27:38.291Z,151.64
2024-01-24T10:28:34.567Z,151.69
2024-01-24T10:29:34.570Z,150.55
2024-01-24T10:30:34.692Z,147.74
2024-01-24T10:31:37.755Z,142.76
2024-01-24T10:32:34.625Z,140.10
2024-01-24T10:33:34.672Z,136.95
2024-01-24T10:34:34.654Z,137.25
2024-01-24T10:35:34.588Z,149.56
2024-01-24T10:36:35.105Z,148.96
2024-01-24T10:37:35.403Z,147.36
2024-01-24T10:38:34.583Z,143.25
2024-01-24T10:39:42.019Z,138.96
2024-01-24T10:40:34.560Z,138.97
2024-01-24T10:41:34.583Z,139.05
2024-01-24T10:42:34.621Z,135.05
2024-01-24T10:43:34.610Z,134.04
2024-01-24T10:44:34.660Z,133.98
2024-01-24T10:45:34.623Z,134.65
2024-01-24T10:46:34.681Z,135.34
2024-01-24T10:47:34.631Z,135.70
2024-01-24T10:48:34.765Z,134.48
2024-01-24T10:49:34.728Z,134.72
2024-01-24T10:50:34.674Z,134.24
2024-01-24T10:51:35.029Z,133.89
2024-01-24T10:52:35.106Z,132.97
2024-01-24T10:53:34.742Z,132.91
2024-01-24T10:54:34.772Z,133.98
2024-01-24T10:55:34.896Z,132.09
2024-01-24T10:56:34.774Z,130.88
2024-01-24T10:57:34.856Z,129.18
2024-01-24T10:58:35.094Z,128.79
2024-01-24T10:59:34.866Z,127.48
2024-01-24T11:00:34.952Z,125.77
2024-01-24T11:01:34.925Z,124.95
2024-01-24T11:02:34.972Z,123.19
2024-01-24T11:03:35.229Z,122.06
2024-01-24T11:04:35.092Z,122.42
2024-01-24T11:05:35.154Z,125.64
2024-01-24T11:06:35.263Z,127.13
2024-01-24T11:07:35.156Z,131.37
2024-01-24T11:08:42.962Z,133.25
2024-01-24T11:09:35.261Z,133.45
2024-01-24T11:10:35.188Z,135.06
2024-01-24T11:11:35.162Z,137.64
2024-01-24T11:12:35.178Z,142.44
2024-01-24T11:13:35.630Z,147.95
2024-01-24T11:14:35.401Z,149.82
2024-01-24T11:15:35.120Z,152.28
2024-01-24T11:16:35.076Z,153.12
2024-01-24T11:17:35.131Z,154.49
2024-01-24T11:18:35.258Z,156.05
2024-01-24T11:19:35.337Z,158.47
2024-01-24T11:20:34.992Z,161.84
2024-01-24T11:21:36.740Z,164.92
2024-01-24T11:22:35.219Z,168.01
2024-01-24T11:23:35.104Z,170.32
2024-01-24T11:24:35.013Z,172.04
2024-01-24T11:25:34.895Z,172.96
2024-01-24T11:26:34.851Z,174.29
2024-01-24T11:28:34.107Z,176.65
2024-01-24T11:29:34.828Z,177.17
2024-01-24T11:30:34.806Z,177.68
2024-01-24T11:31:34.791Z,178.03
2024-01-24T11:32:34.745Z,180.50
2024-01-24T11:33:35.243Z,185.09
2024-01-24T11:34:34.752Z,186.09
2024-01-24T11:35:37.843Z,188.34
2024-01-24T11:36:34.597Z,188.41
2024-01-24T11:37:34.600Z,188.43
2024-01-24T11:38:37.845Z,186.10
2024-01-24T11:39:34.607Z,184.59
2024-01-24T11:40:34.564Z,181.27
2024-01-24T11:41:34.615Z,177.62
2024-01-24T11:42:34.514Z,174.57
2024-01-24T11:43:37.553Z,170.33
2024-01-24T11:44:34.447Z,169.96
2024-01-24T11:45:34.459Z,167.90
2024-01-24T11:46:34.757Z,160.42
2024-01-24T11:47:34.426Z,150.80
2024-01-24T11:48:34.589Z,143.70
2024-01-24T11:49:34.459Z,141.95
2024-01-24T11:50:34.402Z,138.29
2024-01-24T11:51:34.401Z,134.20
2024-01-24T11:52:34.618Z,134.77
2024-01-24T11:53:34.374Z,134.01
2024-01-24T11:54:34.346Z,131.56
2024-01-24T11:55:34.318Z,129.59
2024-01-24T11:56:34.369Z,128.82
2024-01-24T11:57:34.671Z,127.28
2024-01-24T11:58:34.290Z,124.70
2024-01-24T11:59:34.289Z,124.23
2024-01-24T12:00:34.287Z,122.06
2024-01-24T12:01:34.688Z,120.92
2024-01-24T12:02:34.621Z,119.88
2024-01-24T12:03:34.319Z,120.87
2024-01-24T12:04:34.298Z,121.21
2024-01-24T12:05:34.210Z,120.23
2024-01-24T12:06:34.335Z,120.44
2024-01-24T12:07:34.681Z,120.19
2024-01-24T12:08:34.162Z,121.06
2024-01-24T12:09:34.182Z,120.55
2024-01-24T12:10:34.129Z,121.86
2024-01-24T12:11:34.642Z,122.70
2024-01-24T12:12:34.151Z,123.58
2024-01-24T12:13:34.067Z,123.22
2024-01-24T12:14:34.043Z,123.25
2024-01-24T12:15:34.038Z,125.19
2024-01-24T12:16:34.013Z,124.75
2024-01-24T12:17:34.140Z,126.33
2024-01-24T12:18:34.376Z,126.66
2024-01-24T12:19:34.226Z,125.23
2024-01-24T12:20:34.177Z,126.38
2024-01-24T12:21:34.264Z,126.56
2024-01-24T12:22:34.630Z,126.17
2024-01-24T12:23:34.636Z,125.20
2024-01-24T12:24:34.331Z,122.21
2024-01-24T12:25:34.398Z,119.99
2024-01-24T12:26:34.363Z,117.79
2024-01-24T12:27:34.351Z,116.47
2024-01-24T12:28:34.371Z,114.83
2024-01-24T12:29:34.406Z,112.78
2024-01-24T12:30:34.562Z,112.21
2024-01-24T12:31:34.538Z,111.14
2024-01-24T12:32:34.609Z,110.79
2024-01-24T12:33:36.468Z,109.42
2024-01-24T12:34:34.733Z,112.29
2024-01-24T12:35:34.583Z,113.84
2024-01-24T12:36:34.590Z,114.20
2024-01-24T12:37:34.642Z,112.93
2024-01-24T12:38:34.535Z,114.36
2024-01-24T12:39:34.536Z,114.08
2024-01-24T12:40:34.483Z,114.56
2024-01-24T12:41:34.510Z,115.76
2024-01-24T12:42:35.417Z,116.28
2024-01-24T12:43:34.733Z,117.22
2024-01-24T12:44:34.430Z,118.58
2024-01-24T12:45:34.452Z,118.61
2024-01-24T12:46:34.411Z,119.83
2024-01-24T12:47:34.373Z,120.44
2024-01-24T12:48:34.474Z,122.21
2024-01-24T12:49:34.414Z,123.37
2024-01-24T12:50:34.575Z,124.13
2024-01-24T12:51:34.300Z,126.61
2024-01-24T12:52:34.259Z,127.94
2024-01-24T12:53:34.426Z,131.72
2024-01-24T12:54:34.263Z,132.46
2024-01-24T12:55:34.167Z,133.14
2024-01-24T12:56:34.148Z,137.64
2024-01-24T12:57:35.910Z,139.80
2024-01-24T12:58:34.388Z,142.01
2024-01-24T12:59:34.065Z,145.72
2024-01-24T13:00:34.159Z,146.08
2024-01-24T13:01:34.048Z,147.38
2024-01-24T13:02:33.988Z,148.89
2024-01-24T13:03:34.110Z,148.39
2024-01-24T13:04:34.073Z,149.49
2024-01-24T13:05:39.752Z,149.50
2024-01-24T13:06:33.986Z,149.56
2024-01-24T13:07:34.024Z,149.99
2024-01-24T13:08:34.287Z,149.64
2024-01-24T13:09:37.187Z,149.59
2024-01-24T13:10:34.327Z,149.60
2024-01-24T13:11:33.815Z,149.59
2024-01-24T13:12:33.858Z,149.64
2024-01-24T13:13:33.748Z,149.62
2024-01-24T13:14:33.704Z,149.29
2024-01-24T13:15:33.743Z,148.18
2024-01-24T13:16:33.696Z,145.27
2024-01-24T13:17:33.715Z,146.21
2024-01-24T13:18:34.290Z,145.51
2024-01-24T13:19:33.972Z,144.02
2024-01-24T13:20:33.830Z,143.55
2024-01-24T13:21:33.876Z,142.79
2024-01-24T13:22:33.866Z,143.23
2024-01-24T13:23:33.914Z,142.25
2024-01-24T13:24:34.019Z,143.10
2024-01-24T13:25:34.193Z,142.81
2024-01-24T13:26:34.012Z,142.30
2024-01-24T13:27:34.064Z,142.28
2024-01-24T13:28:34.083Z,141.19
2024-01-24T13:29:34.158Z,142.68
2024-01-24T13:30:34.199Z,142.24
2024-01-24T13:31:34.202Z,142.32
2024-01-24T13:32:34.217Z,140.93
2024-01-24T13:33:36.401Z,141.66